createdAt,value
2023-04-18T00:00:11.267Z,94181.25
2023-04-18T00:01:09.807Z,94136.44
2023-04-18T00:02:07.342Z,94173.34
2023-04-18T00:03:05.012Z,94187.06
2023-04-18T00:04:03.154Z,94176.25
2023-04-18T00:05:00.327Z,94173.44
2023-04-18T00:05:58.089Z,94174.63
2023-04-18T00:06:54.912Z,94174.69
2023-04-18T00:07:52.869Z,94174.03
2023-04-18T00:08:49.770Z,94170.06
2023-04-18T00:09:46.486Z,94166.56
2023-04-18T00:10:43.216Z,94156.56
2023-04-18T00:11:40.042Z,94164.84
2023-04-18T00:12:36.966Z,94129.34
2023-04-18T00:13:33.852Z,94162.63
2023-04-18T00:14:30.595Z,94125.00
2023-04-18T00:15:29.319Z,94174.19
2023-04-18T00:16:27.282Z,94139.69
2023-04-18T00:17:26.652Z,94181.53
2023-04-18T00:18:26.612Z,94169.97
2023-04-18T00:19:23.678Z,94098.47
2023-04-18T00:20:20.447Z,94174.66
2023-04-18T00:21:17.437Z,94175.22
2023-04-18T00:22:14.645Z,94091.25
2023-04-18T00:23:13.987Z,94125.84
2023-04-18T00:24:11.268Z,94136.13
2023-04-18T00:25:12.574Z,94178.22
2023-04-18T00:26:09.435Z,94170.63
2023-04-18T00:27:06.177Z,94174.06
2023-04-18T00:28:02.957Z,94171.56
2023-04-18T00:28:59.658Z,94182.94
2023-04-18T00:29:56.411Z,94168.00
2023-04-18T00:30:53.286Z,94164.19
2023-04-18T00:31:50.051Z,94172.41
2023-04-18T00:32:46.907Z,94159.88
2023-04-18T00:33:43.749Z,94174.00
2023-04-18T00:34:41.260Z,94174.00
2023-04-18T00:35:38.530Z,94176.50
2023-04-18T00:36:35.291Z,94159.44
2023-04-18T00:37:32.055Z,94169.91
2023-04-18T00:38:28.803Z,94157.13
2023-04-18T00:39:25.586Z,94163.94
2023-04-18T00:40:22.360Z,94177.34
2023-04-18T00:41:21.581Z,94131.59
2023-04-18T00:42:18.287Z,94155.13
2023-04-18T00:43:16.159Z,94167.00
2023-04-18T00:44:13.150Z,94170.47
2023-04-18T00:45:10.661Z,94161.22
2023-04-18T00:46:07.791Z,94166.88
2023-04-18T00:47:04.535Z,94143.09
2023-04-18T00:48:02.021Z,94163.00
2023-04-18T00:48:58.993Z,94067.38
2023-04-18T00:49:56.630Z,94166.34
2023-04-18T00:50:54.050Z,94169.38
2023-04-18T00:51:51.269Z,94163.81
2023-04-18T00:52:48.535Z,94145.78
2023-04-18T00:53:46.186Z,94163.94
2023-04-18T00:54:44.647Z,94158.63
2023-04-18T00:55:41.760Z,94163.78
2023-04-18T00:56:39.039Z,94125.94
2023-04-18T00:57:36.472Z,94114.69
2023-04-18T00:58:33.290Z,94159.41
2023-04-18T00:59:30.562Z,94154.22
2023-04-18T01:00:27.467Z,94127.41
2023-04-18T01:01:24.304Z,94154.84
2023-04-18T01:02:21.397Z,94158.72
2023-04-18T01:03:18.522Z,94162.69
2023-04-18T01:04:15.882Z,94151.31
2023-04-18T01:05:12.951Z,94135.25
2023-04-18T01:06:09.971Z,94116.81
2023-04-18T01:07:07.046Z,94106.22
2023-04-18T01:08:03.784Z,94152.16
2023-04-18T01:09:02.275Z,94155.97
2023-04-18T01:10:00.469Z,94133.69
2023-04-18T01:10:57.222Z,94149.28
2023-04-18T01:11:53.960Z,94159.00
2023-04-18T01:12:50.639Z,94153.66
2023-04-18T01:14:04.282Z,94131.50
2023-04-18T01:15:01.025Z,94113.09
2023-04-18T01:15:59.036Z,94151.06
2023-04-18T01:16:57.519Z,94134.28
2023-04-18T01:17:54.347Z,94141.81
2023-04-18T01:18:51.077Z,94152.03
2023-04-18T01:19:47.962Z,94125.84
2023-04-18T01:20:47.642Z,94145.78
2023-04-18T01:21:44.509Z,94147.59
2023-04-18T01:22:41.337Z,94130.59
2023-04-18T01:23:38.334Z,94138.88
2023-04-18T01:24:35.181Z,94122.09
2023-04-18T01:25:32.709Z,94151.50
2023-04-18T01:26:29.697Z,94115.41
2023-04-18T01:27:26.420Z,94141.03
2023-04-18T01:28:23.146Z,94128.41
2023-04-18T01:29:19.915Z,94131.28
2023-04-18T01:30:16.731Z,94122.63
2023-04-18T01:31:13.606Z,94151.00
2023-04-18T01:32:10.381Z,94111.00
2023-04-18T01:33:07.326Z,94080.22
2023-04-18T01:34:05.175Z,94153.88
2023-04-18T01:35:02.103Z,94042.22
2023-04-18T01:35:58.846Z,94099.56
2023-04-18T01:36:55.745Z,94111.53
2023-04-18T01:37:52.575Z,94134.34
2023-04-18T01:38:49.294Z,94140.28
2023-04-18T01:39:46.086Z,94075.50
2023-04-18T01:40:42.906Z,94116.19
2023-04-18T01:41:39.618Z,94135.03
2023-04-18T01:42:36.518Z,94082.75
2023-04-18T01:43:33.337Z,94106.06
2023-04-18T01:44:30.072Z,94100.72
2023-04-18T01:45:26.885Z,94160.50
2023-04-18T01:46:23.668Z,94134.84
2023-04-18T01:47:20.485Z,94125.56
2023-04-18T01:48:17.202Z,94152.69
2023-04-18T01:49:14.009Z,94124.69
2023-04-18T01:50:11.032Z,94157.19
2023-04-18T01:51:07.820Z,94153.94
2023-04-18T01:52:04.554Z,94150.22
2023-04-18T01:53:01.454Z,94152.28
2023-04-18T01:53:58.227Z,94128.94
2023-04-18T01:54:55.001Z,94154.25
2023-04-18T01:55:51.755Z,94159.34
2023-04-18T01:56:48.476Z,94161.03
2023-04-18T01:57:45.362Z,94083.91
2023-04-18T01:58:42.096Z,94143.56
2023-04-18T01:59:38.786Z,94162.75
2023-04-18T02:00:35.672Z,94150.50
2023-04-18T02:01:32.426Z,94118.91
2023-04-18T02:02:29.282Z,94155.00
2023-04-18T02:03:26.317Z,94105.16
2023-04-18T02:04:23.173Z,94153.38
2023-04-18T02:05:20.049Z,94119.38
2023-04-18T02:06:16.813Z,94119.28
2023-04-18T02:07:13.692Z,94160.47
2023-04-18T02:08:11.734Z,94147.00
2023-04-18T02:09:08.465Z,94129.38
2023-04-18T02:10:05.734Z,94157.84
2023-04-18T02:11:02.924Z,94126.22
2023-04-18T02:12:01.939Z,94147.94
2023-04-18T02:12:58.771Z,94155.88
2023-04-18T02:13:55.723Z,94100.91
2023-04-18T02:14:53.784Z,94105.00
2023-04-18T02:15:50.975Z,94159.22
2023-04-18T02:16:47.797Z,94165.03
2023-04-18T02:17:45.637Z,94168.25
2023-04-18T02:18:43.721Z,94162.75
2023-04-18T02:19:41.099Z,94164.25
2023-04-18T02:20:38.424Z,94124.63
2023-04-18T02:21:35.277Z,94153.41
2023-04-18T02:22:32.076Z,94168.25
2023-04-18T02:23:28.779Z,94170.88
2023-04-18T02:24:25.544Z,94166.81
2023-04-18T02:25:24.206Z,94094.47
2023-04-18T02:26:21.090Z,94165.94
2023-04-18T02:27:18.434Z,94176.53
2023-04-18T02:28:15.209Z,94085.38
2023-04-18T02:29:12.085Z,94146.03
2023-04-18T02:30:09.284Z,94168.84
2023-04-18T02:31:07.367Z,94134.28
2023-04-18T02:32:04.395Z,94175.72
2023-04-18T02:33:01.307Z,94150.66
2023-04-18T02:33:58.085Z,94149.38
2023-04-18T02:34:54.815Z,94173.66
2023-04-18T02:35:51.553Z,94173.59
2023-04-18T02:36:48.290Z,94177.28
2023-04-18T02:37:45.170Z,94176.63
2023-04-18T02:38:41.946Z,94149.06
2023-04-18T02:39:38.699Z,94178.44
2023-04-18T02:40:35.471Z,94151.31
2023-04-18T02:41:32.241Z,94170.44
2023-04-18T02:42:28.979Z,94161.66
2023-04-18T02:43:25.709Z,94179.72
2023-04-18T02:44:22.598Z,94174.91
2023-04-18T02:45:19.413Z,94171.66
2023-04-18T02:46:16.714Z,94181.28
2023-04-18T02:47:13.493Z,94152.56
2023-04-18T02:48:10.300Z,94172.19
2023-04-18T02:49:07.518Z,94181.81
2023-04-18T02:50:04.660Z,94170.09
2023-04-18T02:51:05.542Z,94184.31
2023-04-18T02:52:02.283Z,94177.75
2023-04-18T02:52:59.094Z,94170.66
2023-04-18T02:53:56.277Z,94145.91
2023-04-18T02:54:53.109Z,94144.22
2023-04-18T02:55:49.892Z,94164.84
2023-04-18T02:56:46.696Z,94173.88
2023-04-18T02:57:43.462Z,94158.94
2023-04-18T02:58:40.210Z,94176.94
2023-04-18T02:59:36.900Z,94180.22
2023-04-18T03:00:34.684Z,94093.81
2023-04-18T03:01:31.492Z,94175.50
2023-04-18T03:02:28.337Z,94181.13
2023-04-18T03:03:25.235Z,94146.47
2023-04-18T03:04:22.004Z,94175.53
2023-04-18T03:05:19.555Z,94148.94
2023-04-18T03:06:16.301Z,94180.88
2023-04-18T03:07:13.177Z,94164.00
2023-04-18T03:08:09.967Z,94163.75
2023-04-18T03:09:07.158Z,94162.63
2023-04-18T03:10:04.199Z,94182.41
2023-04-18T03:11:01.031Z,94189.09
2023-04-18T03:11:57.771Z,94158.94
2023-04-18T03:12:54.443Z,94188.78
2023-04-18T03:13:51.375Z,94185.34
2023-04-18T03:14:48.207Z,94143.81
2023-04-18T03:15:44.997Z,94182.13
2023-04-18T03:16:41.875Z,94132.22
2023-04-18T03:17:39.483Z,94183.19
2023-04-18T03:18:36.224Z,94121.97
2023-04-18T03:19:33.095Z,94187.34
2023-04-18T03:20:29.843Z,94171.78
2023-04-18T03:21:26.759Z,94154.50
2023-04-18T03:22:23.520Z,94181.09
2023-04-18T03:23:20.227Z,94202.47
2023-04-18T03:24:17.133Z,94196.19
2023-04-18T03:25:14.159Z,94196.69
2023-04-18T03:26:13.198Z,94209.09
2023-04-18T03:27:10.015Z,94148.13
2023-04-18T03:28:06.758Z,94184.53
2023-04-18T03:29:03.525Z,94184.38
2023-04-18T03:30:01.948Z,94188.56
2023-04-18T03:30:59.340Z,94209.97
2023-04-18T03:31:56.163Z,94118.41
2023-04-18T03:32:53.767Z,94209.00
2023-04-18T03:33:51.716Z,94220.88
2023-04-18T03:34:49.364Z,94164.41
2023-04-18T03:35:46.259Z,94214.75
2023-04-18T03:36:43.568Z,94197.00
2023-04-18T03:37:41.261Z,94218.88
2023-04-18T03:38:40.561Z,94199.72
2023-04-18T03:39:37.352Z,94215.19
2023-04-18T03:40:34.133Z,94219.19
2023-04-18T03:41:30.873Z,94211.38
2023-04-18T03:42:27.601Z,94178.53
2023-04-18T03:43:24.409Z,94192.38
2023-04-18T03:44:21.235Z,94180.31
2023-04-18T03:45:18.083Z,94202.63
2023-04-18T03:46:15.340Z,94207.53
2023-04-18T03:47:12.287Z,94174.28
2023-04-18T03:48:09.041Z,94187.53
2023-04-18T03:49:05.932Z,94204.41
2023-04-18T03:50:02.698Z,94200.69
2023-04-18T03:50:59.440Z,94202.72
2023-04-18T03:51:56.181Z,94202.44
2023-04-18T03:52:53.136Z,94183.59
2023-04-18T03:53:49.877Z,94213.09
2023-04-18T03:54:46.617Z,94202.78
2023-04-18T03:55:43.596Z,94207.22
2023-04-18T03:56:41.006Z,94209.78
2023-04-18T03:57:37.756Z,94212.91
2023-04-18T03:58:34.556Z,94206.84
2023-04-18T03:59:31.286Z,94211.72
2023-04-18T04:00:28.205Z,94192.69
2023-04-18T04:01:25.034Z,94207.88
2023-04-18T04:02:21.974Z,94209.06
2023-04-18T04:03:19.635Z,94207.69
2023-04-18T04:04:16.684Z,94185.94
2023-04-18T04:05:13.613Z,94206.09
2023-04-18T04:06:10.430Z,94207.13
2023-04-18T04:07:07.239Z,94211.88
2023-04-18T04:08:04.088Z,94187.25
2023-04-18T04:09:01.239Z,94208.38
2023-04-18T04:10:01.378Z,94214.28
2023-04-18T04:10:58.176Z,94205.31
2023-04-18T04:11:54.888Z,94216.97
2023-04-18T04:12:51.758Z,94216.66
2023-04-18T04:13:48.504Z,94161.69
2023-04-18T04:14:45.316Z,94215.69
2023-04-18T04:15:42.190Z,94206.75
2023-04-18T04:16:39.189Z,94153.06
2023-04-18T04:17:35.927Z,94199.72
2023-04-18T04:18:32.694Z,94215.97
2023-04-18T04:19:29.459Z,94198.13
2023-04-18T04:20:26.655Z,94181.81
2023-04-18T04:21:23.454Z,94169.13
2023-04-18T04:22:20.326Z,94218.09
2023-04-18T04:23:17.069Z,94191.53
2023-04-18T04:24:14.072Z,94212.53
2023-04-18T04:25:13.839Z,94183.72
2023-04-18T04:26:10.839Z,94219.19
2023-04-18T04:27:08.189Z,94220.94
2023-04-18T04:28:06.709Z,94219.94
2023-04-18T04:29:03.773Z,94232.38
2023-04-18T04:30:00.847Z,94222.41
2023-04-18T04:30:58.223Z,94223.50
2023-04-18T04:31:55.789Z,94217.31
2023-04-18T04:32:53.534Z,94225.09
2023-04-18T04:33:50.346Z,94215.19
2023-04-18T04:34:47.144Z,94222.13
2023-04-18T04:35:43.975Z,94221.72
2023-04-18T04:36:41.212Z,94199.34
2023-04-18T04:37:38.750Z,94232.47
2023-04-18T04:38:38.453Z,94225.78
2023-04-18T04:39:35.232Z,94231.38
2023-04-18T04:40:31.981Z,94197.97
2023-04-18T04:41:29.442Z,94222.59
2023-04-18T04:42:26.864Z,94213.28
2023-04-18T04:43:24.441Z,94231.66
2023-04-18T04:44:22.392Z,94199.91
2023-04-18T04:45:20.029Z,94229.94
2023-04-18T04:46:19.999Z,94189.69
2023-04-18T04:47:16.911Z,94147.88
2023-04-18T04:48:13.633Z,94220.94
2023-04-18T04:49:11.773Z,94201.63
2023-04-18T04:50:14.734Z,94240.94
2023-04-18T04:51:11.694Z,94210.88
2023-04-18T04:52:08.459Z,94237.88
2023-04-18T04:53:06.472Z,94191.56
2023-04-18T04:54:03.656Z,94178.41
2023-04-18T04:55:00.578Z,94230.81
2023-04-18T04:55:58.178Z,94239.84
2023-04-18T04:56:54.947Z,94239.13
2023-04-18T04:57:51.756Z,94225.53
2023-04-18T04:58:49.137Z,94241.50
2023-04-18T04:59:45.956Z,94243.53
2023-04-18T05:00:42.738Z,94178.31
2023-04-18T05:01:40.267Z,94224.75
2023-04-18T05:02:37.740Z,94191.94
2023-04-18T05:03:36.495Z,94230.88
2023-04-18T05:04:33.518Z,94235.19
2023-04-18T05:05:30.481Z,94193.63
2023-04-18T05:06:27.600Z,94223.91
2023-04-18T05:07:24.474Z,94239.72
2023-04-18T05:08:21.191Z,94212.50
2023-04-18T05:09:17.890Z,94242.16
2023-04-18T05:10:14.957Z,94244.16
2023-04-18T05:11:11.697Z,94243.28
2023-04-18T05:12:08.632Z,94243.63
2023-04-18T05:13:05.432Z,94236.38
2023-04-18T05:14:02.169Z,94202.81
2023-04-18T05:14:58.929Z,94241.50
2023-04-18T05:15:55.679Z,94243.88
2023-04-18T05:16:52.474Z,94246.88
2023-04-18T05:17:49.336Z,94250.91
2023-04-18T05:18:46.122Z,94233.94
2023-04-18T05:19:44.259Z,94212.75
2023-04-18T05:20:41.065Z,94161.63
2023-04-18T05:21:37.800Z,94238.56
2023-04-18T05:22:36.062Z,94249.34
2023-04-18T05:23:36.927Z,94226.56
2023-04-18T05:24:33.634Z,94194.00
2023-04-18T05:25:31.752Z,94243.00
2023-04-18T05:26:28.501Z,94232.34
2023-04-18T05:27:26.698Z,94127.69
2023-04-18T05:28:27.208Z,94243.53
2023-04-18T05:29:24.043Z,94253.47
2023-04-18T05:30:20.908Z,94196.56
2023-04-18T05:31:18.216Z,94234.06
2023-04-18T05:32:19.308Z,94218.72
2023-04-18T05:33:17.605Z,94237.84
2023-04-18T05:34:14.724Z,94194.47
2023-04-18T05:35:11.679Z,94244.31
2023-04-18T05:36:08.779Z,94189.50
2023-04-18T05:37:05.771Z,94244.63
2023-04-18T05:38:02.537Z,94236.72
2023-04-18T05:38:59.332Z,94196.47
2023-04-18T05:39:57.037Z,94143.38
2023-04-18T05:40:55.782Z,94160.44
2023-04-18T05:41:52.692Z,94241.63
2023-04-18T05:42:49.542Z,94207.31
2023-04-18T05:43:51.117Z,94232.56
2023-04-18T05:44:59.032Z,94242.28
2023-04-18T05:45:57.739Z,94220.53
2023-04-18T05:46:54.989Z,94230.75
2023-04-18T05:47:53.969Z,94206.50
2023-04-18T05:48:51.061Z,94231.91
2023-04-18T05:49:55.237Z,94250.41
2023-04-18T05:50:52.100Z,94189.34
2023-04-18T05:51:49.885Z,94244.81
2023-04-18T05:52:46.701Z,94231.63
2023-04-18T05:53:43.429Z,94241.94
2023-04-18T05:54:41.149Z,94234.72
2023-04-18T05:55:40.342Z,94199.31
2023-04-18T05:56:37.395Z,94244.81
2023-04-18T05:57:34.242Z,94234.78
2023-04-18T05:58:31.012Z,94190.53
2023-04-18T05:59:27.701Z,94233.72
2023-04-18T06:00:25.024Z,94243.75
2023-04-18T06:01:22.010Z,94247.47
2023-04-18T06:02:18.830Z,94226.16
2023-04-18T06:03:16.045Z,94242.16
2023-04-18T06:04:13.406Z,94209.94
2023-04-18T06:05:12.323Z,94248.28
2023-04-18T06:06:09.682Z,94235.09
2023-04-18T06:07:06.476Z,94223.25
2023-04-18T06:08:03.673Z,94244.50
2023-04-18T06:09:00.494Z,94232.69
2023-04-18T06:09:57.176Z,94240.38
2023-04-18T06:10:53.857Z,94196.94
2023-04-18T06:11:50.564Z,94242.91
2023-04-18T06:12:47.339Z,94244.13
2023-04-18T06:13:44.114Z,94244.13
2023-04-18T06:14:40.961Z,94231.47
2023-04-18T06:15:37.770Z,94247.50
2023-04-18T06:16:37.246Z,94235.91
2023-04-18T06:17:35.014Z,94194.47
2023-04-18T06:18:32.363Z,94216.88
2023-04-18T06:19:29.150Z,94237.31
2023-04-18T06:20:26.110Z,94247.63
2023-04-18T06:21:22.909Z,94206.00
2023-04-18T06:22:19.766Z,94203.38
2023-04-18T06:23:16.898Z,94248.91
2023-04-18T06:24:14.306Z,94243.91
2023-04-18T06:25:11.449Z,94240.13
2023-04-18T06:26:09.297Z,94170.56
2023-04-18T06:27:06.154Z,94192.19
2023-04-18T06:28:02.901Z,94244.72
2023-04-18T06:28:59.667Z,94199.59
2023-04-18T06:29:56.404Z,94240.66
2023-04-18T06:30:53.180Z,94192.13
2023-04-18T06:31:50.742Z,94209.31
2023-04-18T06:32:48.148Z,94239.75
2023-04-18T06:33:44.978Z,94236.59
2023-04-18T06:34:41.749Z,94159.25
2023-04-18T06:35:38.814Z,94230.69
2023-04-18T06:36:35.560Z,94180.78
2023-04-18T06:37:32.301Z,94224.41
2023-04-18T06:38:29.177Z,94207.25
2023-04-18T06:39:27.887Z,94228.47
2023-04-18T06:40:24.556Z,94234.94
2023-04-18T06:41:21.312Z,94234.53
2023-04-18T06:42:19.667Z,94232.97
2023-04-18T06:43:17.635Z,94195.34
2023-04-18T06:44:14.668Z,94226.69
2023-04-18T06:45:12.169Z,94226.59
2023-04-18T06:46:09.024Z,94228.50
2023-04-18T06:47:06.090Z,94207.09
2023-04-18T06:48:04.242Z,94240.16
2023-04-18T06:49:01.255Z,94241.72
2023-04-18T06:49:58.078Z,94153.38
2023-04-18T06:50:54.832Z,94240.06
2023-04-18T06:51:51.542Z,94236.13
2023-04-18T06:52:48.352Z,94243.56
2023-04-18T06:53:46.070Z,94245.56
2023-04-18T06:54:42.814Z,94242.22
2023-04-18T06:55:40.813Z,94239.00
2023-04-18T06:56:37.839Z,94240.00
2023-04-18T06:57:34.761Z,94230.69
2023-04-18T06:58:31.647Z,94237.28
2023-04-18T06:59:28.355Z,94236.75
2023-04-18T07:00:25.182Z,94238.47
2023-04-18T07:01:21.997Z,94199.03
2023-04-18T07:02:18.869Z,94245.09
2023-04-18T07:03:15.882Z,94210.97
2023-04-18T07:04:13.139Z,94209.38
2023-04-18T07:05:10.683Z,94240.75
2023-04-18T07:06:08.921Z,94237.94
2023-04-18T07:07:05.770Z,94213.41
2023-04-18T07:08:02.805Z,94170.69
2023-04-18T07:09:00.940Z,94154.75
2023-04-18T07:09:57.694Z,94207.59
2023-04-18T07:10:54.468Z,94243.63
2023-04-18T07:11:52.613Z,94245.88
2023-04-18T07:12:49.321Z,94248.91
2023-04-18T07:13:47.371Z,94233.94
2023-04-18T07:14:44.115Z,94228.97
2023-04-18T07:15:41.801Z,94247.13
2023-04-18T07:16:38.668Z,94238.00
2023-04-18T07:17:35.575Z,94195.06
2023-04-18T07:18:38.133Z,94186.34
2023-04-18T07:19:35.391Z,94200.06
2023-04-18T07:20:32.170Z,94250.44
2023-04-18T07:21:28.996Z,94239.47
2023-04-18T07:22:26.164Z,94216.88
2023-04-18T07:23:22.984Z,94219.63
2023-04-18T07:24:19.900Z,94246.19
2023-04-18T07:25:16.744Z,94247.56
2023-04-18T07:26:13.730Z,94174.72
2023-04-18T07:27:10.501Z,94242.09
2023-04-18T07:28:07.248Z,94252.41
2023-04-18T07:29:04.378Z,94229.13
2023-04-18T07:30:01.221Z,94227.50
2023-04-18T07:30:59.062Z,94251.25
2023-04-18T07:31:55.861Z,94251.25
2023-04-18T07:32:52.712Z,94239.75
2023-04-18T07:33:49.519Z,94210.09
2023-04-18T07:34:47.082Z,94250.97
2023-04-18T07:35:46.080Z,94249.00
2023-04-18T07:36:42.897Z,94253.25
2023-04-18T07:37:39.758Z,94236.63
2023-04-18T07:38:36.666Z,94228.22
2023-04-18T07:39:36.090Z,94226.09
2023-04-18T07:40:33.004Z,94253.78
2023-04-18T07:41:29.810Z,94236.06
2023-04-18T07:42:26.883Z,94217.16
2023-04-18T07:43:23.714Z,94252.25
2023-04-18T07:44:21.890Z,94210.84
2023-04-18T07:45:19.190Z,94204.31
2023-04-18T07:46:16.043Z,94251.16
2023-04-18T07:47:12.885Z,94257.56
2023-04-18T07:48:09.701Z,94254.63
2023-04-18T07:49:06.816Z,94211.03
2023-04-18T07:50:04.016Z,94262.22
2023-04-18T07:51:00.836Z,94254.69
2023-04-18T07:51:57.773Z,94214.13
2023-04-18T07:52:54.540Z,94257.34
2023-04-18T07:53:51.351Z,94268.31
2023-04-18T07:54:48.074Z,94245.59
2023-04-18T07:55:45.960Z,94247.81
2023-04-18T07:56:42.724Z,94262.16
2023-04-18T07:57:39.564Z,94245.97
2023-04-18T07:58:36.314Z,94259.88
2023-04-18T07:59:33.121Z,94265.66
2023-04-18T08:00:32.663Z,94257.59
2023-04-18T08:01:29.481Z,94248.69
2023-04-18T08:02:26.336Z,94260.03
2023-04-18T08:03:23.412Z,94263.22
2023-04-18T08:04:20.573Z,94265.94
2023-04-18T08:05:19.714Z,94259.59
2023-04-18T08:06:17.031Z,94258.69
2023-04-18T08:07:13.812Z,94257.34
2023-04-18T08:08:12.056Z,94267.13
2023-04-18T08:09:09.223Z,94271.88
2023-04-18T08:10:06.621Z,94228.44
2023-04-18T08:11:03.834Z,94262.03
2023-04-18T08:12:00.701Z,94225.69
2023-04-18T08:12:57.536Z,94268.97
2023-04-18T08:13:54.275Z,94270.16
2023-04-18T08:14:51.056Z,94271.25
2023-04-18T08:15:48.126Z,94215.88
2023-04-18T08:16:47.781Z,94243.94
2023-04-18T08:17:45.349Z,94265.78
2023-04-18T08:18:42.087Z,94273.25
2023-04-18T08:19:38.896Z,94253.63
2023-04-18T08:20:37.287Z,94243.06
2023-04-18T08:21:34.104Z,94270.97
2023-04-18T08:22:30.900Z,94268.03
2023-04-18T08:23:27.680Z,94268.38
2023-04-18T08:24:24.489Z,94168.91
2023-04-18T08:25:21.232Z,94268.63
2023-04-18T08:26:18.238Z,94270.25
2023-04-18T08:27:15.072Z,94249.31
2023-04-18T08:28:13.160Z,94279.81
2023-04-18T08:29:09.983Z,94262.41
2023-04-18T08:30:07.527Z,94268.00
2023-04-18T08:31:04.513Z,94269.16
2023-04-18T08:32:01.359Z,94265.28
2023-04-18T08:32:59.673Z,94254.59
2023-04-18T08:33:56.472Z,94234.97
2023-04-18T08:34:53.433Z,94240.09
2023-04-18T08:35:51.598Z,94230.00
2023-04-18T08:36:48.342Z,94200.03
2023-04-18T08:37:45.138Z,94278.41
2023-04-18T08:38:42.039Z,94261.94
2023-04-18T08:39:38.820Z,94238.16
2023-04-18T08:40:35.684Z,94269.88
2023-04-18T08:41:37.884Z,94257.72
2023-04-18T08:42:36.431Z,94255.84
2023-04-18T08:43:33.299Z,94244.16
2023-04-18T08:44:30.638Z,94262.78
2023-04-18T08:45:28.756Z,94263.84
2023-04-18T08:46:26.472Z,94279.50
2023-04-18T08:47:23.809Z,94224.28
2023-04-18T08:48:20.520Z,94253.69
2023-04-18T08:49:17.767Z,94276.50
2023-04-18T08:50:16.605Z,94243.03
2023-04-18T08:51:13.401Z,94268.91
2023-04-18T08:52:13.508Z,94264.38
2023-04-18T08:53:11.122Z,94266.75
2023-04-18T08:54:09.457Z,94249.50
2023-04-18T08:55:07.401Z,94267.53
2023-04-18T08:56:05.516Z,94263.28
2023-04-18T08:57:12.551Z,94257.72
2023-04-18T08:58:09.330Z,94236.72
2023-04-18T08:59:06.051Z,94262.78
2023-04-18T09:00:10.178Z,94256.59
2023-04-18T09:01:07.858Z,94255.47
2023-04-18T09:02:08.865Z,94259.31
2023-04-18T09:03:06.819Z,94250.31
2023-04-18T09:04:03.850Z,94175.91
2023-04-18T09:05:00.670Z,94257.66
2023-04-18T09:06:18.857Z,94222.03
2023-04-18T09:07:16.981Z,94247.00
2023-04-18T09:08:24.354Z,94250.16
2023-04-18T09:09:27.400Z,94250.72
2023-04-18T09:10:28.880Z,94252.44
2023-04-18T09:11:31.629Z,94260.19
2023-04-18T09:12:29.493Z,94219.38
2023-04-18T09:13:39.859Z,94241.34
2023-04-18T09:14:37.520Z,94246.44
2023-04-18T09:15:34.427Z,94233.53
2023-04-18T09:16:47.046Z,94251.19
2023-04-18T09:17:49.443Z,94220.50
2023-04-18T09:19:10.417Z,94251.09
2023-04-18T09:20:12.440Z,94207.06
2023-04-18T09:21:20.377Z,94255.63
2023-04-18T09:22:18.097Z,94250.88
2023-04-18T09:23:24.658Z,94254.91
2023-04-18T09:24:24.981Z,94253.28
2023-04-18T09:25:30.082Z,94253.19
2023-04-18T09:26:34.887Z,94251.88
2023-04-18T09:27:35.496Z,94246.00
2023-04-18T09:28:33.808Z,94220.63
2023-04-18T09:29:47.173Z,94248.22
2023-04-18T09:30:44.228Z,94258.31
2023-04-18T09:32:01.703Z,94254.63
2023-04-18T09:33:07.538Z,94254.50
2023-04-18T09:34:05.366Z,94261.91
2023-04-18T09:35:04.938Z,94251.63
2023-04-18T09:36:22.871Z,94264.59
2023-04-18T09:37:20.666Z,94255.97
2023-04-18T09:38:17.576Z,94255.53
2023-04-18T09:39:27.902Z,94254.63
2023-04-18T09:40:24.805Z,94264.59
2023-04-18T09:41:23.564Z,94260.88
2023-04-18T09:42:21.288Z,94257.22
2023-04-18T09:43:21.414Z,94224.94
2023-04-18T09:44:20.356Z,94221.28
2023-04-18T09:45:17.415Z,94245.69
2023-04-18T09:46:15.358Z,94169.66
2023-04-18T09:47:12.125Z,94257.19
2023-04-18T09:48:08.921Z,94263.19
2023-04-18T09:49:05.737Z,94241.50
2023-04-18T09:50:07.513Z,94240.53
2023-04-18T09:51:16.103Z,94254.66
2023-04-18T09:52:13.031Z,94251.94
2023-04-18T09:53:13.373Z,94255.16
2023-04-18T09:54:17.290Z,94233.09
2023-04-18T09:55:17.030Z,94248.75
2023-04-18T09:56:34.541Z,94257.44
2023-04-18T09:57:33.583Z,94225.84
2023-04-18T09:58:34.379Z,94184.06
2023-04-18T09:59:44.032Z,94214.72
2023-04-18T10:00:41.712Z,94255.78
2023-04-18T10:01:41.098Z,94245.19
2023-04-18T10:02:48.257Z,94242.09
2023-04-18T10:03:47.919Z,94250.09
2023-04-18T10:04:47.401Z,94229.88
2023-04-18T10:05:45.993Z,94189.75
2023-04-18T10:06:46.459Z,94253.41
2023-04-18T10:07:46.251Z,94208.22
2023-04-18T10:08:45.708Z,94246.09
2023-04-18T10:09:45.531Z,94255.63
2023-04-18T10:10:43.366Z,94221.81
2023-04-18T10:11:40.977Z,94195.59
2023-04-18T10:12:38.891Z,94200.19
2023-04-18T10:13:41.696Z,94253.63
2023-04-18T10:14:43.142Z,94216.22
2023-04-18T10:15:42.305Z,94256.50
2023-04-18T10:16:45.560Z,94251.97
2023-04-18T10:18:03.726Z,94244.72
2023-04-18T10:19:26.267Z,94243.72
2023-04-18T10:20:27.105Z,94236.66
2023-04-18T10:21:23.928Z,94246.94
2023-04-18T10:22:28.120Z,94247.31
2023-04-18T10:23:38.295Z,94239.03
2023-04-18T10:24:48.192Z,94239.13
2023-04-18T10:25:49.436Z,94233.84
2023-04-18T10:26:50.362Z,94240.47
2023-04-18T10:27:57.433Z,94233.84
2023-04-18T10:28:59.476Z,94238.03
2023-04-18T10:29:56.665Z,94238.25
2023-04-18T10:31:05.546Z,94235.09
2023-04-18T10:32:07.118Z,94234.34
2023-04-18T10:33:36.108Z,94231.19
2023-04-18T10:34:39.047Z,94233.84
2023-04-18T10:35:36.157Z,94227.41
2023-04-18T10:36:33.528Z,94226.41
2023-04-18T10:37:32.063Z,94234.38
2023-04-18T10:38:29.275Z,94228.25
2023-04-18T10:39:26.401Z,94234.88
2023-04-18T10:40:35.552Z,94230.13
2023-04-18T10:41:34.315Z,94231.72
2023-04-18T10:42:52.562Z,94233.78
2023-04-18T10:44:08.452Z,94229.84
2023-04-18T10:45:18.487Z,94233.84
2023-04-18T10:46:30.358Z,94187.38
2023-04-18T10:47:28.998Z,94191.34
2023-04-18T10:48:30.266Z,94233.75
2023-04-18T10:49:32.118Z,94231.41
2023-04-18T10:50:29.711Z,94213.13
2023-04-18T10:51:26.614Z,94236.72
2023-04-18T10:52:23.747Z,94233.31
2023-04-18T10:53:20.604Z,94232.72
2023-04-18T10:54:37.690Z,94235.41
2023-04-18T10:55:34.878Z,94165.25
2023-04-18T10:56:31.792Z,94238.31
2023-04-18T10:57:46.406Z,94236.50
2023-04-18T10:58:50.527Z,94181.00
2023-04-18T10:59:52.530Z,94225.81
2023-04-18T11:00:52.027Z,94230.31
2023-04-18T11:01:53.723Z,94224.16
2023-04-18T11:02:56.564Z,94222.59
2023-04-18T11:03:55.005Z,94225.81
2023-04-18T11:04:54.481Z,94210.69
2023-04-18T11:05:51.240Z,94126.03
2023-04-18T11:06:50.258Z,94218.94
2023-04-18T11:07:48.817Z,94221.38
2023-04-18T11:08:45.616Z,94198.75
2023-04-18T11:09:51.098Z,94114.09
2023-04-18T11:11:09.465Z,94216.81
2023-04-18T11:12:09.220Z,94196.13
2023-04-18T11:13:06.672Z,94118.09
2023-04-18T11:14:03.442Z,94167.44
2023-04-18T11:15:02.063Z,94196.94
2023-04-18T11:15:58.968Z,94209.63
2023-04-18T11:16:55.862Z,94169.59
2023-04-18T11:18:11.053Z,94174.31
2023-04-18T11:19:23.293Z,94171.16
2023-04-18T11:20:20.064Z,94170.09
2023-04-18T11:21:16.970Z,94198.22
2023-04-18T11:22:14.932Z,94217.91
2023-04-18T11:23:25.025Z,94183.63
2023-04-18T11:24:23.371Z,94207.78
2023-04-18T11:25:24.776Z,94207.78